<?xml version="1.0" encoding="UTF-8" standalone="no" ?>
<gpx xmlns="http://www.topografix.com/GPX/1/1" xmlns:xsi="http://www.w3.org/2001/XMLSchema-instance" xsi:schemaLocation="http://www.topografix.com/GPX/1/1 http://www.topografix.com/GPX/1/1/gpx.xsd" version="1.1" creator="VisuGPX - https://www.visugpx.com">
  <metadata>
    <name>MortagneSevre_GardeGrenon_9-21km</name>
    <desc><![CDATA[gnerando idor:8309080_9395868_14480589_14480594]]></desc>
  </metadata>
  <trk>
    <name><![CDATA[MortagneS_Grenon_13km-14480589]]></name>
    <extensions>
      <line xmlns="http://www.topografix.com/GPX/gpx_style/0/2">
        <color>00FF00</color>
        <width>4</width>
      </line>
    </extensions>
    <trkseg>
      <trkpt lat="46.99119" lon="-0.95238">
        <ele>114</ele>
        <time>2023-11-05T14:38:12Z</time>
      </trkpt>
      <trkpt lat="46.9907" lon="-0.95267">
        <ele>113</ele>
        <time>2023-11-05T14:39:23Z</time>
      </trkpt>
      <trkpt lat="46.99034" lon="-0.95304">
        <ele>111</ele>
        <time>2023-11-05T14:40:21Z</time>
      </trkpt>
      <trkpt lat="46.99004" lon="-0.9531">
        <ele>111</ele>
        <time>2023-11-05T14:41:02Z</time>
      </trkpt>
      <trkpt lat="46.98947" lon="-0.95304">
        <ele>111</ele>
        <time>2023-11-05T14:42:18Z</time>
      </trkpt>
      <trkpt lat="46.98934" lon="-0.9531">
        <ele>110</ele>
        <time>2023-11-05T14:42:36Z</time>
      </trkpt>
      <trkpt lat="46.98859" lon="-0.95287">
        <ele>114</ele>
        <time>2023-11-05T14:44:18Z</time>
      </trkpt>
      <trkpt lat="46.98831" lon="-0.95386">
        <ele>108</ele>
        <time>2023-11-05T14:45:56Z</time>
      </trkpt>
      <trkpt lat="46.9884" lon="-0.95474">
        <ele>103</ele>
        <time>2023-11-05T14:47:17Z</time>
      </trkpt>
      <trkpt lat="46.98867" lon="-0.95488">
        <ele>100</ele>
        <time>2023-11-05T14:47:55Z</time>
      </trkpt>
      <trkpt lat="46.98889" lon="-0.95525">
        <ele>94</ele>
        <time>2023-11-05T14:48:40Z</time>
      </trkpt>
      <trkpt lat="46.98915" lon="-0.95531">
        <ele>90</ele>
        <time>2023-11-05T14:49:15Z</time>
      </trkpt>
      <trkpt lat="46.98921" lon="-0.95563">
        <ele>85</ele>
        <time>2023-11-05T14:49:45Z</time>
      </trkpt>
      <trkpt lat="46.98912" lon="-0.95606">
        <ele>80</ele>
        <time>2023-11-05T14:50:26Z</time>
      </trkpt>
      <trkpt lat="46.98856" lon="-0.95696">
        <ele>77</ele>
        <time>2023-11-05T14:52:17Z</time>
      </trkpt>
      <trkpt lat="46.98883" lon="-0.95729">
        <ele>72</ele>
        <time>2023-11-05T14:53:04Z</time>
      </trkpt>
      <trkpt lat="46.98985" lon="-0.9565">
        <ele>71</ele>
        <time>2023-11-05T14:55:38Z</time>
      </trkpt>
      <trkpt lat="46.99054" lon="-0.95592">
        <ele>84</ele>
        <time>2023-11-05T14:57:24Z</time>
      </trkpt>
      <trkpt lat="46.99129" lon="-0.95624">
        <ele>86</ele>
        <time>2023-11-05T14:59:08Z</time>
      </trkpt>
      <trkpt lat="46.99204" lon="-0.95706">
        <ele>85</ele>
        <time>2023-11-05T15:01:13Z</time>
      </trkpt>
      <trkpt lat="46.99291" lon="-0.95854">
        <ele>82</ele>
        <time>2023-11-05T15:04:11Z</time>
      </trkpt>
      <trkpt lat="46.99329" lon="-0.95959">
        <ele>74</ele>
        <time>2023-11-05T15:05:59Z</time>
      </trkpt>
      <trkpt lat="46.99413" lon="-0.96102">
        <ele>73</ele>
        <time>2023-11-05T15:08:51Z</time>
      </trkpt>
      <trkpt lat="46.99452" lon="-0.96182">
        <ele>77</ele>
        <time>2023-11-05T15:10:20Z</time>
      </trkpt>
      <trkpt lat="46.99511" lon="-0.96431">
        <ele>72</ele>
        <time>2023-11-05T15:14:20Z</time>
      </trkpt>
      <trkpt lat="46.99531" lon="-0.96482">
        <ele>72</ele>
        <time>2023-11-05T15:15:14Z</time>
      </trkpt>
      <trkpt lat="46.99568" lon="-0.96512">
        <ele>72</ele>
        <time>2023-11-05T15:16:10Z</time>
      </trkpt>
      <trkpt lat="46.99578" lon="-0.9655">
        <ele>71</ele>
        <time>2023-11-05T15:16:47Z</time>
      </trkpt>
      <trkpt lat="46.99579" lon="-0.96658">
        <ele>67</ele>
        <time>2023-11-05T15:18:26Z</time>
      </trkpt>
      <trkpt lat="46.99608" lon="-0.96763">
        <ele>72</ele>
        <time>2023-11-05T15:20:09Z</time>
      </trkpt>
      <trkpt lat="46.9958" lon="-0.96819">
        <ele>76</ele>
        <time>2023-11-05T15:21:12Z</time>
      </trkpt>
      <trkpt lat="46.99556" lon="-0.9686">
        <ele>75</ele>
        <time>2023-11-05T15:22:01Z</time>
      </trkpt>
      <trkpt lat="46.99541" lon="-0.96923">
        <ele>74</ele>
        <time>2023-11-05T15:23:02Z</time>
      </trkpt>
      <trkpt lat="46.99528" lon="-0.97012">
        <ele>75</ele>
        <time>2023-11-05T15:24:25Z</time>
      </trkpt>
      <trkpt lat="46.99529" lon="-0.97167">
        <ele>76</ele>
        <time>2023-11-05T15:26:46Z</time>
      </trkpt>
      <trkpt lat="46.99504" lon="-0.97296">
        <ele>68</ele>
        <time>2023-11-05T15:28:48Z</time>
      </trkpt>
      <trkpt lat="46.99485" lon="-0.97389">
        <ele>68</ele>
        <time>2023-11-05T15:30:16Z</time>
      </trkpt>
      <trkpt lat="46.99523" lon="-0.97804">
        <ele>64</ele>
        <time>2023-11-05T15:36:37Z</time>
      </trkpt>
      <trkpt lat="46.99616" lon="-0.97844">
        <ele>68</ele>
        <time>2023-11-05T15:38:47Z</time>
      </trkpt>
      <trkpt lat="46.99675" lon="-0.97908">
        <ele>70</ele>
        <time>2023-11-05T15:40:25Z</time>
      </trkpt>
      <trkpt lat="46.9979" lon="-0.98102">
        <ele>73</ele>
        <time>2023-11-05T15:44:18Z</time>
      </trkpt>
      <trkpt lat="46.99831" lon="-0.98358">
        <ele>68</ele>
        <time>2023-11-05T15:48:18Z</time>
      </trkpt>
      <trkpt lat="46.99889" lon="-0.98523">
        <ele>67</ele>
        <time>2023-11-05T15:51:07Z</time>
      </trkpt>
      <trkpt lat="46.99924" lon="-0.98731">
        <ele>62</ele>
        <time>2023-11-05T15:54:22Z</time>
      </trkpt>
      <trkpt lat="46.99918" lon="-0.98746">
        <ele>60</ele>
        <time>2023-11-05T15:54:38Z</time>
      </trkpt>
      <trkpt lat="46.99937" lon="-0.98761">
        <ele>64</ele>
        <time>2023-11-05T15:55:06Z</time>
      </trkpt>
      <trkpt lat="46.99985" lon="-0.98815">
        <ele>71</ele>
        <time>2023-11-05T15:56:27Z</time>
      </trkpt>
      <trkpt lat="47.00006" lon="-0.98871">
        <ele>74</ele>
        <time>2023-11-05T15:57:25Z</time>
      </trkpt>
      <trkpt lat="46.99975" lon="-0.98922">
        <ele>69</ele>
        <time>2023-11-05T15:58:27Z</time>
      </trkpt>
      <trkpt lat="46.99994" lon="-0.9918">
        <ele>69</ele>
        <time>2023-11-05T16:02:24Z</time>
      </trkpt>
      <trkpt lat="47.00041" lon="-0.9928">
        <ele>69</ele>
        <time>2023-11-05T16:04:14Z</time>
      </trkpt>
      <trkpt lat="47.0008" lon="-0.9939">
        <ele>74</ele>
        <time>2023-11-05T16:06:07Z</time>
      </trkpt>
      <trkpt lat="47.00089" lon="-0.99426">
        <ele>76</ele>
        <time>2023-11-05T16:06:42Z</time>
      </trkpt>
      <trkpt lat="47.00074" lon="-0.99484">
        <ele>71</ele>
        <time>2023-11-05T16:07:38Z</time>
      </trkpt>
      <trkpt lat="47.00098" lon="-0.99607">
        <ele>70</ele>
        <time>2023-11-05T16:09:35Z</time>
      </trkpt>
      <trkpt lat="47.00124" lon="-0.99793">
        <ele>71</ele>
        <time>2023-11-05T16:12:28Z</time>
      </trkpt>
      <trkpt lat="47.00152" lon="-0.99843">
        <ele>73</ele>
        <time>2023-11-05T16:13:26Z</time>
      </trkpt>
      <trkpt lat="47.00129" lon="-0.99937">
        <ele>69</ele>
        <time>2023-11-05T16:14:57Z</time>
      </trkpt>
      <trkpt lat="47.00134" lon="-1.00152">
        <ele>67</ele>
        <time>2023-11-05T16:18:13Z</time>
      </trkpt>
      <trkpt lat="47.00219" lon="-1.00407">
        <ele>72</ele>
        <time>2023-11-05T16:22:31Z</time>
      </trkpt>
      <trkpt lat="47.00221" lon="-1.00652">
        <ele>67</ele>
        <time>2023-11-05T16:26:14Z</time>
      </trkpt>
      <trkpt lat="47.00225" lon="-1.0089">
        <ele>66</ele>
        <time>2023-11-05T16:29:51Z</time>
      </trkpt>
      <trkpt lat="47.00289" lon="-1.00857">
        <ele>77</ele>
        <time>2023-11-05T16:31:22Z</time>
      </trkpt>
      <trkpt lat="47.00363" lon="-1.00707">
        <ele>89</ele>
        <time>2023-11-05T16:34:10Z</time>
      </trkpt>
      <trkpt lat="47.00398" lon="-1.00699">
        <ele>93</ele>
        <time>2023-11-05T16:34:57Z</time>
      </trkpt>
      <trkpt lat="47.00434" lon="-1.00707">
        <ele>95</ele>
        <time>2023-11-05T16:35:46Z</time>
      </trkpt>
      <trkpt lat="47.00464" lon="-1.00694">
        <ele>97</ele>
        <time>2023-11-05T16:36:28Z</time>
      </trkpt>
      <trkpt lat="47.00502" lon="-1.00694">
        <ele>98</ele>
        <time>2023-11-05T16:37:18Z</time>
      </trkpt>
      <trkpt lat="47.00529" lon="-1.0069">
        <ele>98</ele>
        <time>2023-11-05T16:37:55Z</time>
      </trkpt>
      <trkpt lat="47.00535" lon="-1.00697">
        <ele>98</ele>
        <time>2023-11-05T16:38:05Z</time>
      </trkpt>
      <trkpt lat="47.00548" lon="-1.00697">
        <ele>98</ele>
        <time>2023-11-05T16:38:22Z</time>
      </trkpt>
      <trkpt lat="47.00644" lon="-1.00662">
        <ele>102</ele>
        <time>2023-11-05T16:40:34Z</time>
      </trkpt>
      <trkpt lat="47.00818" lon="-1.00396">
        <ele>115</ele>
        <time>2023-11-05T16:46:10Z</time>
      </trkpt>
      <trkpt lat="47.00695" lon="-1.00259">
        <ele>113</ele>
        <time>2023-11-05T16:49:36Z</time>
      </trkpt>
      <trkpt lat="47.00666" lon="-1.00104">
        <ele>114</ele>
        <time>2023-11-05T16:52:02Z</time>
      </trkpt>
      <trkpt lat="47.00659" lon="-0.99826">
        <ele>109</ele>
        <time>2023-11-05T16:56:15Z</time>
      </trkpt>
      <trkpt lat="47.0063" lon="-0.9974">
        <ele>107</ele>
        <time>2023-11-05T16:57:42Z</time>
      </trkpt>
      <trkpt lat="47.00747" lon="-0.9976">
        <ele>114</ele>
        <time>2023-11-05T17:00:20Z</time>
      </trkpt>
      <trkpt lat="47.009" lon="-0.99796">
        <ele>118</ele>
        <time>2023-11-05T17:03:46Z</time>
      </trkpt>
      <trkpt lat="47.01007" lon="-0.99797">
        <ele>120</ele>
        <time>2023-11-05T17:06:09Z</time>
      </trkpt>
      <trkpt lat="47.01085" lon="-0.99774">
        <ele>123</ele>
        <time>2023-11-05T17:07:55Z</time>
      </trkpt>
      <trkpt lat="47.0114" lon="-0.99713">
        <ele>125</ele>
        <time>2023-11-05T17:09:27Z</time>
      </trkpt>
      <trkpt lat="47.01069" lon="-0.99605">
        <ele>125</ele>
        <time>2023-11-05T17:11:44Z</time>
      </trkpt>
      <trkpt lat="47.01042" lon="-0.99566">
        <ele>126</ele>
        <time>2023-11-05T17:12:34Z</time>
      </trkpt>
      <trkpt lat="47.01033" lon="-0.99491">
        <ele>127</ele>
        <time>2023-11-05T17:13:44Z</time>
      </trkpt>
      <trkpt lat="47.00963" lon="-0.99383">
        <ele>127</ele>
        <time>2023-11-05T17:15:59Z</time>
      </trkpt>
      <trkpt lat="47.00915" lon="-0.99331">
        <ele>127</ele>
        <time>2023-11-05T17:17:19Z</time>
      </trkpt>
      <trkpt lat="47.00881" lon="-0.99313">
        <ele>126</ele>
        <time>2023-11-05T17:18:07Z</time>
      </trkpt>
      <trkpt lat="47.0085" lon="-0.99227">
        <ele>125</ele>
        <time>2023-11-05T17:19:36Z</time>
      </trkpt>
      <trkpt lat="47.00698" lon="-0.99065">
        <ele>119</ele>
        <time>2023-11-05T17:23:46Z</time>
      </trkpt>
      <trkpt lat="47.00581" lon="-0.98904">
        <ele>112</ele>
        <time>2023-11-05T17:27:21Z</time>
      </trkpt>
      <trkpt lat="47.00561" lon="-0.98879">
        <ele>111</ele>
        <time>2023-11-05T17:27:56Z</time>
      </trkpt>
      <trkpt lat="47.00536" lon="-0.98704">
        <ele>111</ele>
        <time>2023-11-05T17:30:38Z</time>
      </trkpt>
      <trkpt lat="47.00543" lon="-0.98594">
        <ele>118</ele>
        <time>2023-11-05T17:32:19Z</time>
      </trkpt>
      <trkpt lat="47.00519" lon="-0.98504">
        <ele>119</ele>
        <time>2023-11-05T17:33:47Z</time>
      </trkpt>
      <trkpt lat="47.00677" lon="-0.98392">
        <ele>129</ele>
        <time>2023-11-05T17:37:41Z</time>
      </trkpt>
      <trkpt lat="47.00688" lon="-0.98351">
        <ele>129</ele>
        <time>2023-11-05T17:38:21Z</time>
      </trkpt>
      <trkpt lat="47.00767" lon="-0.98246">
        <ele>132</ele>
        <time>2023-11-05T17:40:43Z</time>
      </trkpt>
      <trkpt lat="47.00775" lon="-0.98166">
        <ele>131</ele>
        <time>2023-11-05T17:41:57Z</time>
      </trkpt>
      <trkpt lat="47.00774" lon="-0.98132">
        <ele>130</ele>
        <time>2023-11-05T17:42:28Z</time>
      </trkpt>
      <trkpt lat="47.00742" lon="-0.98095">
        <ele>129</ele>
        <time>2023-11-05T17:43:22Z</time>
      </trkpt>
      <trkpt lat="47.00693" lon="-0.98147">
        <ele>126</ele>
        <time>2023-11-05T17:44:43Z</time>
      </trkpt>
      <trkpt lat="47.00572" lon="-0.98089">
        <ele>121</ele>
        <time>2023-11-05T17:47:33Z</time>
      </trkpt>
      <trkpt lat="47.00543" lon="-0.98019">
        <ele>120</ele>
        <time>2023-11-05T17:48:47Z</time>
      </trkpt>
      <trkpt lat="47.00451" lon="-0.97979">
        <ele>120</ele>
        <time>2023-11-05T17:50:55Z</time>
      </trkpt>
      <trkpt lat="47.00475" lon="-0.97877">
        <ele>124</ele>
        <time>2023-11-05T17:52:34Z</time>
      </trkpt>
      <trkpt lat="47.00534" lon="-0.97727">
        <ele>126</ele>
        <time>2023-11-05T17:55:11Z</time>
      </trkpt>
      <trkpt lat="47.00535" lon="-0.97574">
        <ele>123</ele>
        <time>2023-11-05T17:57:31Z</time>
      </trkpt>
      <trkpt lat="47.00497" lon="-0.97491">
        <ele>120</ele>
        <time>2023-11-05T17:59:01Z</time>
      </trkpt>
      <trkpt lat="47.00364" lon="-0.97333">
        <ele>117</ele>
        <time>2023-11-05T18:02:50Z</time>
      </trkpt>
      <trkpt lat="47.00348" lon="-0.97368">
        <ele>120</ele>
        <time>2023-11-05T18:03:28Z</time>
      </trkpt>
      <trkpt lat="47.0036" lon="-0.97391">
        <ele>121</ele>
        <time>2023-11-05T18:03:55Z</time>
      </trkpt>
      <trkpt lat="47.00354" lon="-0.97401">
        <ele>121</ele>
        <time>2023-11-05T18:04:07Z</time>
      </trkpt>
      <trkpt lat="47.00331" lon="-0.9738">
        <ele>121</ele>
        <time>2023-11-05T18:04:43Z</time>
      </trkpt>
      <trkpt lat="47.00304" lon="-0.97351">
        <ele>120</ele>
        <time>2023-11-05T18:05:28Z</time>
      </trkpt>
      <trkpt lat="47.00266" lon="-0.97322">
        <ele>119</ele>
        <time>2023-11-05T18:06:25Z</time>
      </trkpt>
      <trkpt lat="47.00189" lon="-0.97134">
        <ele>107</ele>
        <time>2023-11-05T18:09:44Z</time>
      </trkpt>
      <trkpt lat="47.00165" lon="-0.97109">
        <ele>105</ele>
        <time>2023-11-05T18:10:24Z</time>
      </trkpt>
      <trkpt lat="47.00121" lon="-0.97134">
        <ele>105</ele>
        <time>2023-11-05T18:11:27Z</time>
      </trkpt>
      <trkpt lat="47.0007" lon="-0.97159">
        <ele>106</ele>
        <time>2023-11-05T18:12:38Z</time>
      </trkpt>
      <trkpt lat="47.00016" lon="-0.97162">
        <ele>109</ele>
        <time>2023-11-05T18:13:50Z</time>
      </trkpt>
      <trkpt lat="46.99982" lon="-0.97126">
        <ele>108</ele>
        <time>2023-11-05T18:14:46Z</time>
      </trkpt>
      <trkpt lat="46.99933" lon="-0.96943">
        <ele>98</ele>
        <time>2023-11-05T18:17:45Z</time>
      </trkpt>
      <trkpt lat="46.9992" lon="-0.96946">
        <ele>98</ele>
        <time>2023-11-05T18:18:03Z</time>
      </trkpt>
      <trkpt lat="46.99798" lon="-0.96808">
        <ele>92</ele>
        <time>2023-11-05T18:21:28Z</time>
      </trkpt>
      <trkpt lat="46.9985" lon="-0.96798">
        <ele>92</ele>
        <time>2023-11-05T18:22:38Z</time>
      </trkpt>
      <trkpt lat="46.99719" lon="-0.96615">
        <ele>91</ele>
        <time>2023-11-05T18:26:40Z</time>
      </trkpt>
      <trkpt lat="46.99564" lon="-0.96358">
        <ele>88</ele>
        <time>2023-11-05T18:31:52Z</time>
      </trkpt>
      <trkpt lat="46.99553" lon="-0.96285">
        <ele>92</ele>
        <time>2023-11-05T18:33:00Z</time>
      </trkpt>
      <trkpt lat="46.99451" lon="-0.96042">
        <ele>85</ele>
        <time>2023-11-05T18:37:20Z</time>
      </trkpt>
      <trkpt lat="46.99462" lon="-0.95993">
        <ele>89</ele>
        <time>2023-11-05T18:38:07Z</time>
      </trkpt>
      <trkpt lat="46.99433" lon="-0.96045">
        <ele>80</ele>
        <time>2023-11-05T18:39:08Z</time>
      </trkpt>
      <trkpt lat="46.99395" lon="-0.96012">
        <ele>75</ele>
        <time>2023-11-05T18:40:07Z</time>
      </trkpt>
      <trkpt lat="46.99414" lon="-0.9596">
        <ele>82</ele>
        <time>2023-11-05T18:41:01Z</time>
      </trkpt>
      <trkpt lat="46.99436" lon="-0.95925">
        <ele>89</ele>
        <time>2023-11-05T18:41:44Z</time>
      </trkpt>
      <trkpt lat="46.99419" lon="-0.95803">
        <ele>100</ele>
        <time>2023-11-05T18:43:37Z</time>
      </trkpt>
      <trkpt lat="46.9941" lon="-0.95784">
        <ele>100</ele>
        <time>2023-11-05T18:43:58Z</time>
      </trkpt>
      <trkpt lat="46.99462" lon="-0.95781">
        <ele>104</ele>
        <time>2023-11-05T18:45:08Z</time>
      </trkpt>
      <trkpt lat="46.99462" lon="-0.95715">
        <ele>105</ele>
        <time>2023-11-05T18:46:08Z</time>
      </trkpt>
      <trkpt lat="46.99438" lon="-0.95694">
        <ele>104</ele>
        <time>2023-11-05T18:46:45Z</time>
      </trkpt>
      <trkpt lat="46.99425" lon="-0.95598">
        <ele>105</ele>
        <time>2023-11-05T18:48:14Z</time>
      </trkpt>
      <trkpt lat="46.99396" lon="-0.9559">
        <ele>106</ele>
        <time>2023-11-05T18:48:54Z</time>
      </trkpt>
      <trkpt lat="46.9937" lon="-0.95605">
        <ele>107</ele>
        <time>2023-11-05T18:49:31Z</time>
      </trkpt>
      <trkpt lat="46.99343" lon="-0.95601">
        <ele>109</ele>
        <time>2023-11-05T18:50:07Z</time>
      </trkpt>
      <trkpt lat="46.99299" lon="-0.95601">
        <ele>110</ele>
        <time>2023-11-05T18:51:06Z</time>
      </trkpt>
      <trkpt lat="46.99297" lon="-0.95493">
        <ele>115</ele>
        <time>2023-11-05T18:52:44Z</time>
      </trkpt>
      <trkpt lat="46.9931" lon="-0.95479">
        <ele>115</ele>
        <time>2023-11-05T18:53:06Z</time>
      </trkpt>
      <trkpt lat="46.9929" lon="-0.95398">
        <ele>119</ele>
        <time>2023-11-05T18:54:24Z</time>
      </trkpt>
      <trkpt lat="46.99291" lon="-0.95348">
        <ele>119</ele>
        <time>2023-11-05T18:55:10Z</time>
      </trkpt>
      <trkpt lat="46.99258" lon="-0.95345">
        <ele>119</ele>
        <time>2023-11-05T18:55:54Z</time>
      </trkpt>
      <trkpt lat="46.99224" lon="-0.95286">
        <ele>116</ele>
        <time>2023-11-05T18:57:04Z</time>
      </trkpt>
      <trkpt lat="46.99207" lon="-0.95289">
        <ele>115</ele>
        <time>2023-11-05T18:57:27Z</time>
      </trkpt>
      <trkpt lat="46.99155" lon="-0.95208">
        <ele>115</ele>
        <time>2023-11-05T18:59:08Z</time>
      </trkpt>
      <trkpt lat="46.99119" lon="-0.95238">
        <ele>114</ele>
        <time>2023-11-05T19:00:03Z</time>
      </trkpt>
    </trkseg>
  </trk>
</gpx>